Time,TemperatureF,DewpointF,PressureIn,WindDirection,WindDirectionDegrees,WindSpeedMPH,WindSpeedGustMPH,Humidity,HourlyPrecipIn,Conditions,Clouds,dailyrainin,SoftwareType,DateUTC
2013-03-19 00:02:00,45.0,43.0,30.02,North,355,0.0,0.0,91,0.00,,,0.36,,2013-03-19 05:02:00,
2013-03-19 00:12:00,45.0,43.0,30.02,North,355,0.0,0.0,91,0.00,,,0.36,,2013-03-19 05:12:00,
2013-03-19 00:22:00,44.0,41.0,30.02,North,355,0.0,0.0,90,0.00,,,0.36,,2013-03-19 05:22:00,
2013-03-19 00:32:00,44.0,42.0,30.03,North,355,0.0,0.0,91,0.00,,,0.36,,2013-03-19 05:32:00,
2013-03-19 00:42:00,44.0,42.0,30.03,North,355,0.0,0.0,91,0.00,,,0.36,,2013-03-19 05:42:00,
2013-03-19 00:52:00,44.0,42.0,30.03,North,355,0.0,0.0,91,0.00,,,0.36,,2013-03-19 05:52:00,
2013-03-19 01:02:00,43.0,41.0,30.03,North,355,0.0,0.0,92,0.00,,,0.36,,2013-03-19 06:02:00,
2013-03-19 01:12:00,43.0,41.0,30.03,North,355,0.0,0.0,92,0.00,,,0.36,,2013-03-19 06:12:00,
2013-03-19 01:22:00,43.0,41.0,30.04,North,355,0.0,0.0,92,0.00,,,0.36,,2013-03-19 06:22:00,
2013-03-19 01:32:00,42.0,40.0,30.04,North,355,0.0,0.0,92,0.00,,,0.36,,2013-03-19 06:32:00,
2013-03-19 01:42:00,42.0,40.0,30.04,North,355,0.0,0.0,92,0.00,,,0.36,,2013-03-19 06:42:00,
2013-03-19 01:52:00,42.0,40.0,30.04,North,355,0.0,0.0,92,0.00,,,0.36,,2013-03-19 06:52:00,
2013-03-19 02:02:00,42.0,40.0,30.05,North,355,0.0,0.0,92,0.00,,,0.36,,2013-03-19 07:02:00,
2013-03-19 02:12:00,42.0,40.0,30.05,North,355,0.0,0.0,92,0.00,,,0.36,,2013-03-19 07:12:00,
2013-03-19 02:21:00,41.0,39.0,30.05,North,355,0.0,0.0,92,0.00,,,0.36,,2013-03-19 07:21:00,
2013-03-19 02:32:00,41.0,39.0,30.06,North,355,0.0,0.0,93,0.00,,,0.36,,2013-03-19 07:32:00,
2013-03-19 02:42:00,41.0,39.0,30.06,North,355,0.0,0.0,93,0.00,,,0.36,,2013-03-19 07:42:00,
2013-03-19 02:52:00,41.0,39.0,30.05,North,355,0.0,0.0,93,0.00,,,0.36,,2013-03-19 07:52:00,
2013-03-19 03:02:00,41.0,39.0,30.05,North,355,0.0,0.0,93,0.00,,,0.36,,2013-03-19 08:02:00,
2013-03-19 03:12:00,41.0,39.0,30.05,North,355,0.0,0.0,93,0.00,,,0.36,,2013-03-19 08:12:00,
2013-03-19 03:22:00,40.0,38.0,30.03,North,355,0.0,0.0,93,0.00,,,0.36,,2013-03-19 08:22:00,
2013-03-19 03:32:00,40.0,38.0,30.03,North,355,0.0,0.0,94,0.00,,,0.35,,2013-03-19 08:32:00,
2013-03-19 03:42:00,40.0,38.0,30.03,North,355,0.0,0.0,94,0.00,,,0.35,,2013-03-19 08:42:00,
2013-03-19 03:52:00,39.0,37.0,30.02,North,355,0.0,0.0,94,0.00,,,0.35,,2013-03-19 08:52:00,
2013-03-19 04:02:00,39.0,37.0,30.03,North,355,0.0,0.0,94,0.00,,,0.35,,2013-03-19 09:02:00,
2013-03-19 04:12:00,39.0,37.0,30.03,North,355,0.0,0.0,94,0.00,,,0.35,,2013-03-19 09:12:00,
2013-03-19 04:22:00,39.0,37.0,30.03,North,355,0.0,0.0,94,0.00,,,0.35,,2013-03-19 09:22:00,
2013-03-19 04:32:00,38.0,36.0,30.04,North,355,0.0,0.0,94,0.00,,,0.28,,2013-03-19 09:32:00,
2013-03-19 04:42:00,38.0,36.0,30.04,North,355,0.0,0.0,94,0.00,,,0.28,,2013-03-19 09:42:00,
2013-03-19 04:53:00,38.0,36.0,30.03,North,355,0.0,0.0,94,0.00,,,0.28,,2013-03-19 09:53:00,
2013-03-19 05:03:00,38.0,36.0,30.02,North,355,0.0,0.0,94,0.00,,,0.28,,2013-03-19 10:03:00,
2013-03-19 05:12:00,38.0,36.0,30.02,North,355,0.0,0.0,94,0.00,,,0.28,,2013-03-19 10:12:00,
2013-03-19 05:23:00,37.0,35.0,30.02,North,355,0.0,0.0,94,0.00,,,0.28,,2013-03-19 10:23:00,
2013-03-19 05:32:00,37.0,35.0,30.02,North,355,0.0,0.0,94,0.00,,,0.28,,2013-03-19 10:32:00,
2013-03-19 05:42:00,37.0,35.0,30.02,North,355,0.0,0.0,94,0.00,,,0.28,,2013-03-19 10:42:00,
2013-03-19 05:53:00,37.0,35.0,30.03,North,355,0.0,0.0,94,0.00,,,0.28,,2013-03-19 10:53:00,
2013-03-19 06:02:00,37.0,35.0,30.04,North,355,0.0,0.0,94,0.00,,,0.28,,2013-03-19 11:02:00,
2013-03-19 06:12:00,37.0,35.0,30.04,North,355,0.0,0.0,94,0.00,,,0.28,,2013-03-19 11:12:00,
2013-03-19 06:22:00,37.0,36.0,30.04,North,355,0.0,0.0,95,0.00,,,0.28,,2013-03-19 11:22:00,
2013-03-19 06:32:00,36.0,34.0,30.05,North,355,0.0,0.0,94,0.00,,,0.28,,2013-03-19 11:32:00,
2013-03-19 06:42:00,36.0,34.0,30.05,North,355,0.0,0.0,94,0.00,,,0.28,,2013-03-19 11:42:00,
2013-03-19 06:52:00,36.0,35.0,30.05,North,355,0.0,0.0,95,0.00,,,0.28,,2013-03-19 11:52:00,
2013-03-19 07:02:00,36.0,35.0,30.06,North,355,0.0,0.0,95,0.00,,,0.28,,2013-03-19 12:02:00,
2013-03-19 07:12:00,36.0,35.0,30.06,North,355,0.0,0.0,95,0.00,,,0.28,,2013-03-19 12:12:00,
2013-03-19 07:22:00,36.0,35.0,30.06,North,355,0.0,0.0,95,0.00,,,0.28,,2013-03-19 12:22:00,
2013-03-19 07:33:00,37.0,36.0,30.06,North,355,0.0,0.0,95,0.01,,,0.28,,2013-03-19 12:33:00,
2013-03-19 07:42:00,37.0,36.0,30.06,North,355,0.0,0.0,95,0.01,,,0.28,,2013-03-19 12:42:00,
2013-03-19 07:52:00,38.0,37.0,30.08,NW,326,1.0,4.0,95,0.01,,,0.28,,2013-03-19 12:52:00,
2013-03-19 08:02:00,38.0,37.0,30.09,North,11,0.0,5.0,95,0.01,,,0.28,,2013-03-19 13:02:00,
2013-03-19 08:12:00,38.0,37.0,30.09,North,11,0.0,5.0,95,0.01,,,0.28,,2013-03-19 13:12:00,
2013-03-19 08:22:00,39.0,38.0,30.09,NNW,334,3.0,6.0,95,0.01,,,0.28,,2013-03-19 13:22:00,
2013-03-19 08:32:00,40.0,38.0,30.11,North,360,3.0,7.0,93,0.00,,,0.28,,2013-03-19 13:32:00,
2013-03-19 08:42:00,40.0,38.0,30.11,North,360,3.0,7.0,93,0.00,,,0.28,,2013-03-19 13:42:00,
2013-03-19 08:52:00,42.0,39.0,30.11,NNE,30,1.0,4.0,89,0.00,,,0.28,,2013-03-19 13:52:00,
2013-03-19 09:02:00,43.0,38.0,30.12,ENE,68,4.0,7.0,83,0.00,,,0.28,,2013-03-19 14:02:00,
2013-03-19 09:12:00,43.0,38.0,30.12,ENE,68,4.0,7.0,83,0.00,,,0.28,,2013-03-19 14:12:00,
2013-03-19 09:22:00,45.0,38.0,30.12,NNE,30,0.0,3.0,77,0.00,,,0.28,,2013-03-19 14:22:00,
2013-03-19 09:32:00,46.0,38.0,30.12,East,84,1.0,4.0,73,0.00,,,0.28,,2013-03-19 14:32:00,
2013-03-19 09:42:00,46.0,38.0,30.12,East,84,1.0,4.0,73,0.00,,,0.28,,2013-03-19 14:42:00,
2013-03-19 09:52:00,47.0,36.0,30.14,ESE,115,1.0,6.0,65,0.00,,,0.28,,2013-03-19 14:52:00,
2013-03-19 10:02:00,48.0,35.0,30.15,North,350,7.0,12.0,60,0.00,,,0.28,,2013-03-19 15:02:00,
2013-03-19 10:12:00,48.0,35.0,30.15,North,350,7.0,12.0,60,0.00,,,0.28,,2013-03-19 15:12:00,
2013-03-19 10:22:00,48.0,34.0,30.15,NNE,14,5.0,13.0,58,0.00,,,0.28,,2013-03-19 15:22:00,
2013-03-19 10:33:00,49.0,36.0,30.15,NNE,16,3.0,10.0,60,0.00,,,0.16,,2013-03-19 15:33:00,
2013-03-19 10:43:00,49.0,36.0,30.15,NNE,16,3.0,10.0,60,0.00,,,0.16,,2013-03-19 15:43:00,
2013-03-19 10:53:00,50.0,34.0,30.16,ENE,65,6.0,11.0,55,0.00,,,0.16,,2013-03-19 15:53:00,
2013-03-19 11:03:00,51.0,35.0,30.16,NNE,25,5.0,8.0,55,0.00,,,0.16,,2013-03-19 16:03:00,
2013-03-19 11:13:00,51.0,35.0,30.16,NNE,25,5.0,8.0,55,0.00,,,0.16,,2013-03-19 16:13:00,
2013-03-19 11:24:00,50.0,33.0,30.18,NNW,330,2.0,7.0,52,0.00,,,0.16,,2013-03-19 16:24:00,
2013-03-19 11:34:00,53.0,34.0,30.18,NNE,22,0.0,3.0,49,0.00,,,0.15,,2013-03-19 16:34:00,
2013-03-19 11:44:00,53.0,34.0,30.18,NNE,22,0.0,3.0,49,0.00,,,0.15,,2013-03-19 16:44:00,
2013-03-19 11:54:00,53.0,33.0,30.18,ENE,71,4.0,7.0,46,0.00,,,0.15,,2013-03-19 16:54:00,
2013-03-19 12:03:00,53.0,33.0,30.17,NNE,16,0.0,9.0,46,0.00,,,0.15,,2013-03-19 17:03:00,
2013-03-19 12:13:00,54.0,29.0,30.17,East,101,2.0,10.0,38,0.00,,,0.15,,2013-03-19 17:13:00,
2013-03-19 12:23:00,54.0,29.0,30.17,East,101,2.0,10.0,38,0.00,,,0.15,,2013-03-19 17:23:00,
2013-03-19 12:34:00,54.0,30.0,30.17,North,5,4.0,8.0,39,0.00,,,0.11,,2013-03-19 17:34:00,
2013-03-19 12:43:00,54.0,30.0,30.17,North,5,4.0,8.0,39,0.00,,,0.11,,2013-03-19 17:43:00,
2013-03-19 12:53:00,54.0,27.0,30.17,East,86,1.0,12.0,35,0.00,,,0.11,,2013-03-19 17:53:00,
2013-03-19 13:02:00,54.0,26.0,30.17,North,355,3.0,9.0,34,0.00,,,0.11,,2013-03-19 18:02:00,
2013-03-19 13:13:00,54.0,26.0,30.17,North,355,3.0,9.0,34,0.00,,,0.11,,2013-03-19 18:13:00,
2013-03-19 13:23:00,55.0,26.0,30.17,NW,315,4.0,8.0,32,0.00,,,0.11,,2013-03-19 18:23:00,
2013-03-19 13:33:00,56.0,27.0,30.17,NW,304,2.0,9.0,33,0.00,,,0.01,,2013-03-19 18:33:00,
2013-03-19 13:43:00,56.0,27.0,30.17,NW,304,2.0,9.0,33,0.00,,,0.01,,2013-03-19 18:43:00,
2013-03-19 13:53:00,57.0,26.0,30.17,North,350,6.0,13.0,30,0.00,,,0.01,,2013-03-19 18:53:00,
2013-03-19 14:02:00,59.0,28.0,30.16,NNE,15,5.0,10.0,30,0.00,,,0.01,,2013-03-19 19:02:00,
2013-03-19 14:12:00,59.0,28.0,30.16,NNE,15,5.0,10.0,30,0.00,,,0.01,,2013-03-19 19:12:00,
2013-03-19 14:22:00,56.0,23.0,30.15,ENE,57,0.0,12.0,28,0.00,,,0.01,,2013-03-19 19:22:00,
2013-03-19 14:32:00,57.0,23.0,30.15,NNE,21,5.0,9.0,27,0.00,,,0.01,,2013-03-19 19:32:00,
2013-03-19 14:42:00,57.0,23.0,30.15,NNE,21,5.0,9.0,27,0.00,,,0.01,,2013-03-19 19:42:00,
2013-03-19 14:53:00,57.0,24.0,30.15,NNW,329,2.0,8.0,28,0.00,,,0.01,,2013-03-19 19:53:00,
2013-03-19 15:02:00,58.0,21.0,30.15,NNE,23,5.0,7.0,24,0.00,,,0.01,,2013-03-19 20:02:00,
2013-03-19 15:12:00,58.0,23.0,30.14,NNW,339,3.0,8.0,26,0.00,,,0.01,,2013-03-19 20:12:00,
2013-03-19 15:22:00,58.0,23.0,30.14,NNW,339,3.0,8.0,26,0.00,,,0.01,,2013-03-19 20:22:00,
2013-03-19 15:32:00,59.0,25.0,30.13,NNE,32,3.0,9.0,27,0.00,,,0.01,,2013-03-19 20:32:00,
2013-03-19 15:42:00,59.0,25.0,30.13,NNE,32,3.0,9.0,27,0.00,,,0.01,,2013-03-19 20:42:00,
2013-03-19 15:53:00,58.0,24.0,30.13,North,355,4.0,8.0,27,0.00,,,0.01,,2013-03-19 20:53:00,
2013-03-19 16:02:00,58.0,25.0,30.12,NE,36,5.0,10.0,28,0.00,,,0.01,,2013-03-19 21:02:00,
2013-03-19 16:12:00,58.0,25.0,30.12,NE,36,5.0,10.0,28,0.00,,,0.01,,2013-03-19 21:12:00,
2013-03-19 16:22:00,57.0,22.0,30.12,ENE,60,6.0,10.0,26,0.00,,,0.01,,2013-03-19 21:22:00,
2013-03-19 16:33:00,57.0,23.0,30.12,ENE,66,1.0,8.0,27,0.00,,,0.01,,2013-03-19 21:33:00,
2013-03-19 16:43:00,57.0,23.0,30.12,ENE,66,1.0,8.0,27,0.00,,,0.01,,2013-03-19 21:43:00,
2013-03-19 16:53:00,57.0,22.0,30.11,NE,53,6.0,10.0,25,0.00,,,0.01,,2013-03-19 21:53:00,
2013-03-19 17:03:00,56.0,21.0,30.11,NNE,30,7.0,12.0,25,0.00,,,0.01,,2013-03-19 22:03:00,
2013-03-19 17:12:00,56.0,21.0,30.11,NNE,30,7.0,12.0,25,0.00,,,0.01,,2013-03-19 22:12:00,
2013-03-19 17:23:00,56.0,22.0,30.11,NE,40,6.0,11.0,26,0.00,,,0.01,,2013-03-19 22:23:00,
2013-03-19 17:33:00,56.0,24.0,30.10,NE,51,5.0,13.0,29,0.00,,,0.01,,2013-03-19 22:33:00,
2013-03-19 17:43:00,55.0,25.0,30.10,NNE,23,9.0,12.0,31,0.00,,,0.01,,2013-03-19 22:43:00,
2013-03-19 17:53:00,55.0,25.0,30.10,NNE,23,9.0,12.0,31,0.00,,,0.01,,2013-03-19 22:53:00,
2013-03-19 18:02:00,55.0,27.0,30.09,NE,45,2.0,10.0,34,0.00,,,0.01,,2013-03-19 23:02:00,
2013-03-19 18:12:00,55.0,27.0,30.09,NE,45,2.0,10.0,34,0.00,,,0.01,,2013-03-19 23:12:00,
2013-03-19 18:22:00,55.0,29.0,30.09,ENE,69,0.0,10.0,36,0.00,,,0.01,,2013-03-19 23:22:00,
2013-03-19 18:32:00,55.0,29.0,30.10,NE,55,1.0,7.0,37,0.00,,,0.01,,2013-03-19 23:32:00,
2013-03-19 18:42:00,55.0,29.0,30.10,NE,55,1.0,7.0,37,0.00,,,0.01,,2013-03-19 23:42:00,
2013-03-19 18:52:00,54.0,28.0,30.10,NNE,12,3.0,10.0,36,0.00,,,0.01,,2013-03-19 23:52:00,
2013-03-19 19:02:00,54.0,29.0,30.11,NNE,26,0.0,7.0,38,0.00,,,0.01,,2013-03-20 00:02:00,
2013-03-19 19:12:00,54.0,29.0,30.11,NNE,26,0.0,7.0,38,0.00,,,0.01,,2013-03-20 00:12:00,
2013-03-19 19:22:00,53.0,26.0,30.11,NE,48,3.0,12.0,35,0.00,,,0.01,,2013-03-20 00:22:00,
2013-03-19 19:33:00,53.0,27.0,30.12,NE,51,1.0,10.0,37,0.00,,,0.01,,2013-03-20 00:33:00,
2013-03-19 19:42:00,53.0,27.0,30.12,NE,51,1.0,10.0,37,0.00,,,0.01,,2013-03-20 00:42:00,
2013-03-19 19:52:00,53.0,28.0,30.13,ENE,61,1.0,7.0,38,0.00,,,0.01,,2013-03-20 00:52:00,
2013-03-19 20:02:00,52.0,26.0,30.13,East,97,2.0,7.0,36,0.00,,,0.01,,2013-03-20 01:02:00,
2013-03-19 20:12:00,52.0,26.0,30.13,East,97,2.0,7.0,36,0.00,,,0.01,,2013-03-20 01:12:00,
2013-03-19 20:22:00,52.0,25.0,30.13,ENE,64,3.0,8.0,35,0.00,,,0.01,,2013-03-20 01:22:00,
2013-03-19 20:32:00,52.0,26.0,30.14,NNE,32,3.0,8.0,36,0.00,,,0.01,,2013-03-20 01:32:00,
2013-03-19 20:42:00,52.0,26.0,30.14,NNE,32,3.0,8.0,36,0.00,,,0.01,,2013-03-20 01:42:00,
2013-03-19 20:53:00,52.0,25.0,30.14,ESE,113,5.0,11.0,35,0.00,,,0.01,,2013-03-20 01:53:00,
2013-03-19 21:02:00,51.0,25.0,30.14,NE,35,1.0,6.0,36,0.00,,,0.01,,2013-03-20 02:02:00,
2013-03-19 21:12:00,51.0,25.0,30.14,NE,35,1.0,6.0,36,0.00,,,0.01,,2013-03-20 02:12:00,
2013-03-19 21:22:00,51.0,24.0,30.14,NE,43,4.0,8.0,34,0.00,,,0.01,,2013-03-20 02:22:00,
2013-03-19 21:32:00,51.0,24.0,30.15,NE,38,2.0,9.0,34,0.00,,,0.01,,2013-03-20 02:32:00,
2013-03-19 21:42:00,51.0,24.0,30.15,NE,38,2.0,9.0,34,0.00,,,0.01,,2013-03-20 02:42:00,
2013-03-19 21:53:00,50.0,23.0,30.15,NNE,30,5.0,10.0,35,0.00,,,0.01,,2013-03-20 02:53:00,
2013-03-19 22:02:00,50.0,23.0,30.16,ENE,71,3.0,9.0,34,0.00,,,0.01,,2013-03-20 03:02:00,
2013-03-19 22:12:00,50.0,23.0,30.16,NE,46,2.0,6.0,35,0.00,,,0.01,,2013-03-20 03:12:00,
2013-03-19 22:22:00,50.0,23.0,30.16,NE,46,2.0,6.0,35,0.00,,,0.01,,2013-03-20 03:22:00,
2013-03-19 22:33:00,49.0,23.0,30.16,NNE,13,3.0,7.0,35,0.00,,,0.01,,2013-03-20 03:33:00,
2013-03-19 22:42:00,49.0,23.0,30.16,NNE,13,3.0,7.0,35,0.00,,,0.01,,2013-03-20 03:42:00,
2013-03-19 22:53:00,49.0,23.0,30.16,ENE,61,2.0,6.0,36,0.00,,,0.01,,2013-03-20 03:53:00,
2013-03-19 23:03:00,48.0,23.0,30.17,North,11,1.0,4.0,37,0.00,,,0.01,,2013-03-20 04:03:00,
2013-03-19 23:12:00,48.0,23.0,30.17,North,11,1.0,4.0,37,0.00,,,0.01,,2013-03-20 04:12:00,
2013-03-19 23:23:00,48.0,24.0,30.17,NNE,30,2.0,5.0,39,0.00,,,0.01,,2013-03-20 04:23:00,
2013-03-19 23:32:00,47.0,24.0,30.17,NNE,25,2.0,7.0,40,0.00,,,0.01,,2013-03-20 04:32:00,
2013-03-19 23:43:00,47.0,24.0,30.17,NNE,25,2.0,7.0,40,0.00,,,0.01,,2013-03-20 04:43:00,
2013-03-19 23:53:00,47.0,24.0,30.17,NE,49,2.0,7.0,40,0.00,,,0.01,,2013-03-20 04:53:00,